createdAt,value
2023-09-27T00:02:26.714Z,5.65
2023-09-27T00:04:53.934Z,5.20
2023-09-27T00:07:21.279Z,5.80
2023-09-27T00:09:48.402Z,5.47
2023-09-27T00:12:16.673Z,5.78
2023-09-27T00:14:43.803Z,6.28
2023-09-27T00:17:10.998Z,6.00
2023-09-27T00:19:38.316Z,6.50
2023-09-27T00:22:05.454Z,6.25
2023-09-27T00:24:32.576Z,5.30
2023-09-27T00:26:59.904Z,5.72
2023-09-27T00:29:27.049Z,6.05
2023-09-27T00:31:54.264Z,6.03
2023-09-27T00:34:21.523Z,6.43
2023-09-27T00:36:48.651Z,5.47
2023-09-27T00:39:15.783Z,6.18
2023-09-27T00:41:43.219Z,6.22
2023-09-27T00:44:10.418Z,6.45
2023-09-27T00:46:37.770Z,5.70
2023-09-27T00:49:05.608Z,6.03
2023-09-27T00:51:32.812Z,6.65
2023-09-27T00:54:00.039Z,5.65
2023-09-27T00:56:27.702Z,5.80
2023-09-27T00:58:55.927Z,5.72
2023-09-27T01:01:24.510Z,6.05
2023-09-27T01:03:52.104Z,5.50
2023-09-27T01:06:20.649Z,5.97
2023-09-27T01:08:47.905Z,6.00
2023-09-27T01:11:15.161Z,6.18
2023-09-27T01:13:42.422Z,6.70
2023-09-27T01:16:09.581Z,5.72
2023-09-27T01:18:36.765Z,6.50
2023-09-27T01:21:03.865Z,6.13
2023-09-27T01:23:31.003Z,5.47
2023-09-27T01:26:01.826Z,6.32
2023-09-27T01:28:29.985Z,6.30
2023-09-27T01:30:57.071Z,6.65
2023-09-27T01:33:24.322Z,5.93
2023-09-27T01:35:51.516Z,6.20
2023-09-27T01:38:18.645Z,6.57
2023-09-27T01:40:46.400Z,6.70
2023-09-27T01:43:13.864Z,6.35
2023-09-27T01:45:41.273Z,5.90
2023-09-27T01:48:08.588Z,6.90
2023-09-27T01:50:36.725Z,6.45
2023-09-27T01:53:04.511Z,6.30
2023-09-27T01:55:32.542Z,6.25
2023-09-27T01:58:01.454Z,6.43
2023-09-27T02:00:28.912Z,6.10
2023-09-27T02:02:57.726Z,6.50
2023-09-27T02:05:25.422Z,6.28
2023-09-27T02:07:52.993Z,6.13
2023-09-27T02:10:20.243Z,6.47
2023-09-27T02:12:47.392Z,6.50
2023-09-27T02:15:15.650Z,7.45
2023-09-27T02:17:43.922Z,6.03
2023-09-27T02:22:41.750Z,5.95
2023-09-27T02:25:12.958Z,6.47
2023-09-27T02:27:40.884Z,5.80
2023-09-27T02:30:08.825Z,7.03
2023-09-27T02:32:36.498Z,6.50
2023-09-27T02:35:03.761Z,5.93
2023-09-27T02:37:31.370Z,6.40
2023-09-27T02:39:58.591Z,7.00
2023-09-27T02:42:25.925Z,6.88
2023-09-27T02:44:53.039Z,6.32
2023-09-27T02:47:20.216Z,6.25
2023-09-27T02:49:47.622Z,6.10
2023-09-27T02:52:14.713Z,6.03
2023-09-27T02:54:41.819Z,6.93
2023-09-27T02:57:09.028Z,6.63
2023-09-27T02:59:36.445Z,6.38
2023-09-27T03:02:04.384Z,5.47
2023-09-27T03:04:32.530Z,6.88
2023-09-27T03:07:00.686Z,6.75
2023-09-27T03:09:27.802Z,6.13
2023-09-27T03:11:55.096Z,6.47
2023-09-27T03:14:22.283Z,6.25
2023-09-27T03:16:49.420Z,6.60
2023-09-27T03:19:16.506Z,6.95
2023-09-27T03:21:43.610Z,6.38
2023-09-27T03:24:10.723Z,6.35
2023-09-27T03:26:38.531Z,6.68
2023-09-27T03:29:05.852Z,5.95
2023-09-27T03:31:33.107Z,7.40
2023-09-27T03:34:00.257Z,6.63
2023-09-27T03:36:27.404Z,6.40
2023-09-27T03:38:55.518Z,7.22
2023-09-27T03:41:23.165Z,6.90
2023-09-27T03:43:51.847Z,7.03
2023-09-27T03:46:19.312Z,7.30
2023-09-27T03:48:46.642Z,7.40
2023-09-27T03:51:13.790Z,7.47
2023-09-27T03:53:42.941Z,6.93
2023-09-27T03:56:10.057Z,7.07
2023-09-27T03:58:37.232Z,7.95
2023-09-27T04:01:04.372Z,6.93
2023-09-27T04:03:31.542Z,7.07
2023-09-27T04:05:58.851Z,7.55
2023-09-27T04:08:26.101Z,6.90
2023-09-27T04:10:53.311Z,7.25
2023-09-27T04:13:20.828Z,7.72
2023-09-27T04:15:50.527Z,8.07
2023-09-27T04:18:17.782Z,7.93
2023-09-27T04:20:45.156Z,7.13
2023-09-27T04:23:12.386Z,8.10
2023-09-27T04:25:39.545Z,9.15
2023-09-27T04:28:06.798Z,7.72
2023-09-27T04:30:34.009Z,6.65
2023-09-27T04:33:01.216Z,7.55
2023-09-27T04:35:29.660Z,6.75
2023-09-27T04:40:23.832Z,8.55
2023-09-27T04:42:50.944Z,7.85
2023-09-27T04:45:18.071Z,7.18
2023-09-27T04:47:46.210Z,7.80
2023-09-27T04:50:14.119Z,7.35
2023-09-27T04:52:41.664Z,7.80
2023-09-27T04:55:11.918Z,7.80
2023-09-27T04:57:39.050Z,7.90
2023-09-27T05:00:15.222Z,7.78
2023-09-27T05:02:42.872Z,8.40
2023-09-27T05:05:10.264Z,7.87
2023-09-27T05:07:37.557Z,7.18
2023-09-27T05:10:04.769Z,7.70
2023-09-27T05:12:32.034Z,7.60
2023-09-27T05:14:59.823Z,7.40
2023-09-27T05:17:27.000Z,8.25
2023-09-27T05:19:54.754Z,7.97
2023-09-27T05:22:21.981Z,8.20
2023-09-27T05:24:49.136Z,7.88
2023-09-27T05:27:16.577Z,8.40
2023-09-27T05:29:43.784Z,8.57
2023-09-27T05:32:11.116Z,7.82
2023-09-27T05:34:38.288Z,8.80
2023-09-27T05:37:05.457Z,8.02
2023-09-27T05:39:33.111Z,7.73
2023-09-27T05:42:01.298Z,7.72
2023-09-27T05:44:28.470Z,7.50
2023-09-27T05:46:56.870Z,7.53
2023-09-27T05:51:57.088Z,7.65
2023-09-27T05:54:24.865Z,7.35
2023-09-27T05:56:54.193Z,8.13
2023-09-27T05:59:23.034Z,7.82
2023-09-27T06:01:51.292Z,8.23
2023-09-27T06:04:20.421Z,8.55
2023-09-27T06:06:47.907Z,7.90
2023-09-27T06:09:15.240Z,9.07
2023-09-27T06:11:42.406Z,8.25
2023-09-27T06:14:11.462Z,8.00
2023-09-27T06:16:39.800Z,8.30
2023-09-27T06:19:07.067Z,8.68
2023-09-27T06:21:34.216Z,8.32
2023-09-27T06:24:01.067Z,8.23
2023-09-27T06:26:28.242Z,9.52
2023-09-27T06:28:56.043Z,9.52
2023-09-27T06:31:23.692Z,9.40
2023-09-27T06:33:50.946Z,9.60
2023-09-27T06:36:17.766Z,9.45
2023-09-27T06:38:45.326Z,9.43
2023-09-27T06:41:12.333Z,9.68
2023-09-27T06:43:39.204Z,8.73
2023-09-27T06:46:11.444Z,9.38
2023-09-27T06:48:39.157Z,9.40
2023-09-27T06:51:06.969Z,9.77
2023-09-27T06:53:34.372Z,9.25
2023-09-27T06:56:01.356Z,9.80
2023-09-27T06:58:28.802Z,8.90
2023-09-27T07:00:56.242Z,9.63
2023-09-27T07:03:26.768Z,8.90
2023-09-27T07:05:55.416Z,8.73
2023-09-27T07:08:22.328Z,9.57
2023-09-27T07:10:49.107Z,9.35
2023-09-27T07:13:16.300Z,9.68
2023-09-27T07:15:47.197Z,8.60
2023-09-27T07:18:15.297Z,9.57
2023-09-27T07:20:43.220Z,8.65
2023-09-27T07:23:15.863Z,10.73
2023-09-27T07:25:43.861Z,10.35
2023-09-27T07:28:11.323Z,9.77
2023-09-27T07:30:39.030Z,10.68
2023-09-27T07:33:12.925Z,11.38
2023-09-27T07:35:44.533Z,11.52
2023-09-27T07:38:12.295Z,13.80
2023-09-27T07:40:39.550Z,14.73
2023-09-27T07:43:06.798Z,14.30
2023-09-27T07:45:36.641Z,14.25
2023-09-27T07:48:04.788Z,14.00
2023-09-27T07:50:32.892Z,15.35
2023-09-27T07:53:00.433Z,13.63
2023-09-27T07:55:27.938Z,14.77
2023-09-27T07:57:55.833Z,15.33
2023-09-27T08:00:31.248Z,15.65
2023-09-27T08:03:04.818Z,15.57
2023-09-27T08:05:32.529Z,15.10
2023-09-27T08:07:59.335Z,17.50
2023-09-27T08:10:26.180Z,17.15
2023-09-27T08:12:52.976Z,16.95
2023-09-27T08:15:19.934Z,16.00
2023-09-27T08:17:48.892Z,16.42
2023-09-27T08:20:16.547Z,16.65
2023-09-27T08:22:43.832Z,17.17
2023-09-27T08:25:15.859Z,16.00
2023-09-27T08:27:44.194Z,14.98
2023-09-27T08:30:13.087Z,15.10
2023-09-27T08:32:40.386Z,14.32
2023-09-27T08:35:08.198Z,15.30
2023-09-27T08:37:35.334Z,15.10
2023-09-27T08:40:05.071Z,15.32
2023-09-27T08:42:33.351Z,14.10
2023-09-27T08:45:01.844Z,14.70
2023-09-27T08:49:58.741Z,12.80
2023-09-27T08:52:28.237Z,14.48
2023-09-27T08:54:55.032Z,13.90
2023-09-27T08:57:24.605Z,13.38
2023-09-27T08:59:51.434Z,12.60
2023-09-27T09:02:19.170Z,11.80
2023-09-27T09:04:46.122Z,12.00
2023-09-27T09:07:14.938Z,11.57
2023-09-27T09:09:41.912Z,11.30
2023-09-27T09:12:12.393Z,9.85
2023-09-27T09:14:44.411Z,8.80
2023-09-27T09:17:12.241Z,7.72
2023-09-27T09:19:44.805Z,7.57
2023-09-27T09:22:14.146Z,7.90
2023-09-27T09:24:43.188Z,9.15
2023-09-27T09:27:16.889Z,8.00
2023-09-27T09:29:53.418Z,7.53
2023-09-27T09:32:22.570Z,8.52
2023-09-27T09:34:50.133Z,8.55
2023-09-27T09:37:29.564Z,8.27
2023-09-27T09:40:18.242Z,8.90
2023-09-27T09:42:48.903Z,10.88
2023-09-27T09:45:15.724Z,10.68
2023-09-27T09:47:47.614Z,9.82
2023-09-27T09:50:18.597Z,10.52
2023-09-27T09:52:51.528Z,9.88
2023-09-27T09:55:42.259Z,9.93
2023-09-27T09:58:36.056Z,9.02
2023-09-27T10:01:04.578Z,11.55
2023-09-27T10:06:06.429Z,12.60
2023-09-27T10:08:40.117Z,13.63
2023-09-27T10:11:07.093Z,13.20
2023-09-27T10:13:40.261Z,12.90
2023-09-27T10:16:09.646Z,12.43
2023-09-27T10:18:42.646Z,13.68
2023-09-27T10:21:10.846Z,16.33
2023-09-27T10:23:46.895Z,14.35
2023-09-27T10:26:28.864Z,16.27
2023-09-27T10:29:05.315Z,14.98
2023-09-27T10:31:33.858Z,16.23
2023-09-27T10:34:00.737Z,14.88
2023-09-27T10:36:28.867Z,13.77
2023-09-27T10:38:55.914Z,14.05
2023-09-27T10:41:39.730Z,13.18
2023-09-27T10:44:07.171Z,13.77
2023-09-27T10:46:50.800Z,15.00
2023-09-27T10:49:28.665Z,13.23
2023-09-27T10:52:04.731Z,14.05
2023-09-27T10:54:34.911Z,14.95
2023-09-27T10:57:03.594Z,13.73
2023-09-27T10:59:30.842Z,12.95
2023-09-27T11:02:00.308Z,13.90
2023-09-27T11:04:28.057Z,13.73
2023-09-27T11:06:54.887Z,13.20
2023-09-27T11:09:21.672Z,12.30
2023-09-27T11:11:52.946Z,12.05
2023-09-27T11:14:29.970Z,13.35
2023-09-27T11:16:57.207Z,12.95
2023-09-27T11:19:28.818Z,12.18
2023-09-27T11:21:55.560Z,10.68
2023-09-27T11:24:22.450Z,10.30
2023-09-27T11:26:49.190Z,10.65
2023-09-27T11:29:16.201Z,9.20
2023-09-27T11:31:43.080Z,9.57
2023-09-27T11:34:16.425Z,8.70
2023-09-27T11:36:46.997Z,8.43
2023-09-27T11:39:14.971Z,7.25
2023-09-27T11:41:43.044Z,5.70
2023-09-27T11:44:21.122Z,5.10
2023-09-27T11:46:51.088Z,4.72
2023-09-27T11:49:19.044Z,4.20
2023-09-27T11:51:46.327Z,3.80
2023-09-27T11:54:15.821Z,3.30
2023-09-27T11:56:42.647Z,2.65
2023-09-27T11:59:09.525Z,3.45
2023-09-27T12:01:36.367Z,3.28
2023-09-27T12:04:06.745Z,2.70
2023-09-27T12:06:34.953Z,2.50
2023-09-27T12:09:02.920Z,3.00
2023-09-27T12:11:30.050Z,2.72
2023-09-27T12:13:57.165Z,2.40
2023-09-27T12:16:24.363Z,2.88
2023-09-27T12:18:51.401Z,2.40
2023-09-27T12:21:18.399Z,2.63
2023-09-27T12:23:45.745Z,2.67
2023-09-27T12:26:13.738Z,2.90
2023-09-27T12:28:42.317Z,1.95
2023-09-27T12:33:37.281Z,2.28
2023-09-27T12:36:04.826Z,2.15
2023-09-27T12:38:32.044Z,2.22
2023-09-27T12:41:01.699Z,2.30
2023-09-27T12:43:28.911Z,2.00
2023-09-27T12:45:56.133Z,1.90
2023-09-27T12:48:23.373Z,2.65
2023-09-27T12:50:50.694Z,2.75
2023-09-27T12:53:18.197Z,2.30
2023-09-27T12:55:45.506Z,2.53
2023-09-27T12:58:15.928Z,2.42
2023-09-27T13:00:43.659Z,2.75
2023-09-27T13:03:11.200Z,2.72
2023-09-27T13:05:38.681Z,2.90
2023-09-27T13:08:06.145Z,3.00
2023-09-27T13:10:33.888Z,2.43
2023-09-27T13:13:00.788Z,2.35
2023-09-27T13:15:27.626Z,2.40
2023-09-27T13:17:54.577Z,2.65
2023-09-27T13:20:21.697Z,2.50
2023-09-27T13:22:49.843Z,2.50
2023-09-27T13:25:17.960Z,2.60
2023-09-27T13:27:45.557Z,2.25
2023-09-27T13:30:25.740Z,2.63
2023-09-27T13:33:00.749Z,2.30
2023-09-27T13:35:27.856Z,2.20
2023-09-27T13:37:54.681Z,2.78
2023-09-27T13:40:21.490Z,3.05
2023-09-27T13:42:48.180Z,2.75
2023-09-27T13:45:15.134Z,2.58
2023-09-27T13:47:42.062Z,2.35
2023-09-27T13:50:10.400Z,2.58
2023-09-27T13:55:05.137Z,2.22
2023-09-27T13:57:33.045Z,2.13
2023-09-27T13:59:59.935Z,2.00
2023-09-27T14:02:26.743Z,2.22
2023-09-27T14:04:55.015Z,2.53
2023-09-27T14:07:22.903Z,2.70
2023-09-27T14:09:49.742Z,2.42
2023-09-27T14:12:16.749Z,2.03
2023-09-27T14:14:45.357Z,2.35
2023-09-27T14:17:12.947Z,3.28
2023-09-27T14:19:40.350Z,2.30
2023-09-27T14:22:08.222Z,2.50
2023-09-27T14:24:35.553Z,2.42
2023-09-27T14:27:03.145Z,2.28
2023-09-27T14:29:35.725Z,2.95
2023-09-27T14:32:07.140Z,2.30
2023-09-27T14:37:08.390Z,2.10
2023-09-27T14:42:02.320Z,2.60
2023-09-27T14:44:31.632Z,2.58
2023-09-27T14:46:58.461Z,2.88
2023-09-27T14:49:25.337Z,3.00
2023-09-27T14:51:52.718Z,2.83
2023-09-27T14:54:19.467Z,3.05
2023-09-27T14:56:46.240Z,2.83
2023-09-27T14:59:13.163Z,2.22
2023-09-27T15:01:40.041Z,2.80
2023-09-27T15:04:07.901Z,2.47
2023-09-27T15:06:34.679Z,2.90
2023-09-27T15:09:01.411Z,3.00
2023-09-27T15:11:28.280Z,3.13
2023-09-27T15:13:57.389Z,3.10
2023-09-27T15:16:24.798Z,3.25
2023-09-27T15:18:52.055Z,2.83
2023-09-27T15:21:19.320Z,2.78
2023-09-27T15:23:46.948Z,2.75
2023-09-27T15:26:14.271Z,2.90
2023-09-27T15:28:41.462Z,2.90
2023-09-27T15:31:09.225Z,2.80
2023-09-27T15:33:36.355Z,2.58
2023-09-27T15:36:07.856Z,3.38
2023-09-27T15:38:35.481Z,3.10
2023-09-27T15:41:05.194Z,3.40
2023-09-27T15:43:33.495Z,2.67
2023-09-27T15:48:38.309Z,3.00
2023-09-27T15:51:07.131Z,3.20
2023-09-27T15:53:35.050Z,3.00
2023-09-27T15:56:03.617Z,3.15
2023-09-27T15:58:33.214Z,3.05
2023-09-27T16:01:04.177Z,3.30
2023-09-27T16:03:31.564Z,3.58
2023-09-27T16:05:59.927Z,3.37
2023-09-27T16:10:55.646Z,3.00
2023-09-27T16:13:24.083Z,3.03
2023-09-27T16:15:52.161Z,4.28
2023-09-27T16:18:20.955Z,3.50
2023-09-27T16:20:48.434Z,3.95
2023-09-27T16:23:16.821Z,3.90
2023-09-27T16:25:44.509Z,3.60
2023-09-27T16:28:11.846Z,3.72
2023-09-27T16:30:40.343Z,3.60
2023-09-27T16:33:07.656Z,4.60
2023-09-27T16:35:37.241Z,3.80
2023-09-27T16:38:06.745Z,4.53
2023-09-27T16:40:34.329Z,3.58
2023-09-27T16:43:01.769Z,3.83
2023-09-27T16:45:29.051Z,4.55
2023-09-27T16:47:56.365Z,4.47
2023-09-27T16:50:23.612Z,3.75
2023-09-27T16:52:51.779Z,3.38
2023-09-27T16:55:19.043Z,4.07
2023-09-27T16:57:46.156Z,3.58
2023-09-27T17:00:13.739Z,3.42
2023-09-27T17:02:41.718Z,4.63
2023-09-27T17:05:09.151Z,4.43
2023-09-27T17:07:37.461Z,3.97
2023-09-27T17:12:32.581Z,5.07
2023-09-27T17:14:59.917Z,4.05
2023-09-27T17:17:27.178Z,3.93
2023-09-27T17:19:54.542Z,5.03
2023-09-27T17:22:21.763Z,4.75
2023-09-27T17:24:50.434Z,4.10
2023-09-27T17:27:17.977Z,4.53
2023-09-27T17:29:44.826Z,4.10
2023-09-27T17:32:11.628Z,4.45
2023-09-27T17:34:38.522Z,4.40
2023-09-27T17:37:05.469Z,4.22
2023-09-27T17:39:32.249Z,4.20
2023-09-27T17:42:00.333Z,4.05
2023-09-27T17:44:27.368Z,4.00
2023-09-27T17:47:01.397Z,4.43
2023-09-27T17:49:31.925Z,4.97
2023-09-27T17:51:58.706Z,3.90
2023-09-27T17:54:25.392Z,4.25
2023-09-27T17:56:52.095Z,4.43
2023-09-27T17:59:21.652Z,3.92
2023-09-27T18:01:48.809Z,4.30
2023-09-27T18:04:17.313Z,5.60
2023-09-27T18:09:10.728Z,4.18
2023-09-27T18:11:37.675Z,4.03
2023-09-27T18:14:04.711Z,3.67
2023-09-27T18:16:31.637Z,4.13
2023-09-27T18:18:59.463Z,4.28
2023-09-27T18:21:26.302Z,5.20
2023-09-27T18:23:53.652Z,4.38
2023-09-27T18:26:21.504Z,4.20
2023-09-27T18:28:48.399Z,5.50
2023-09-27T18:31:15.314Z,5.75
2023-09-27T18:33:42.190Z,4.47
2023-09-27T18:36:08.985Z,4.40
2023-09-27T18:38:36.373Z,5.07
2023-09-27T18:41:04.096Z,5.33
2023-09-27T18:43:30.920Z,4.70
2023-09-27T18:46:00.280Z,5.57
2023-09-27T18:48:27.298Z,4.95
2023-09-27T18:50:54.452Z,5.25
2023-09-27T18:53:21.285Z,5.53
2023-09-27T18:55:48.029Z,4.65
2023-09-27T18:58:15.639Z,4.82
2023-09-27T19:00:45.739Z,6.53
2023-09-27T19:03:13.775Z,6.55
2023-09-27T19:05:40.888Z,5.47
2023-09-27T19:08:07.780Z,5.05
2023-09-27T19:10:34.841Z,5.00
2023-09-27T19:13:01.607Z,4.50
2023-09-27T19:15:28.350Z,4.88
2023-09-27T19:17:58.475Z,6.30
2023-09-27T19:20:26.555Z,6.03
2023-09-27T19:22:54.274Z,4.88
2023-09-27T19:25:21.703Z,6.00
2023-09-27T19:27:49.334Z,5.28
2023-09-27T19:30:17.159Z,5.20
2023-09-27T19:32:47.514Z,4.55
2023-09-27T19:35:15.659Z,4.22
2023-09-27T19:40:13.776Z,4.67
2023-09-27T19:42:43.704Z,5.07
2023-09-27T19:45:11.375Z,5.30
2023-09-27T19:47:38.235Z,4.97
2023-09-27T19:50:06.343Z,4.93
2023-09-27T19:52:34.176Z,4.57
2023-09-27T19:55:01.024Z,5.05
2023-09-27T19:57:27.906Z,4.38
2023-09-27T19:59:54.738Z,4.35
2023-09-27T20:02:21.445Z,4.97
2023-09-27T20:04:48.380Z,5.38
2023-09-27T20:07:15.143Z,5.00
2023-09-27T20:09:43.127Z,4.82
2023-09-27T20:12:09.825Z,5.00
2023-09-27T20:14:36.814Z,6.90
2023-09-27T20:17:03.826Z,5.68
2023-09-27T20:19:30.810Z,4.93
2023-09-27T20:21:57.638Z,5.13
2023-09-27T20:24:26.059Z,5.60
2023-09-27T20:29:20.077Z,5.43
2023-09-27T20:31:46.849Z,4.80
2023-09-27T20:34:13.596Z,4.45
2023-09-27T20:36:40.277Z,5.18
2023-09-27T20:39:06.990Z,5.60
2023-09-27T20:41:33.632Z,4.80
2023-09-27T20:44:00.386Z,5.15
2023-09-27T20:46:27.132Z,5.60
2023-09-27T20:48:56.253Z,5.75
2023-09-27T20:51:23.076Z,5.03
2023-09-27T20:53:49.855Z,6.65
2023-09-27T20:56:16.595Z,5.72
2023-09-27T20:58:43.760Z,6.30
2023-09-27T21:01:36.699Z,5.55
2023-09-27T21:04:04.142Z,5.90
2023-09-27T21:06:31.302Z,5.30
2023-09-27T21:09:04.125Z,4.88
2023-09-27T21:11:31.385Z,5.72
2023-09-27T21:13:59.674Z,4.30
2023-09-27T21:18:55.209Z,4.55
2023-09-27T21:21:23.372Z,4.30
2023-09-27T21:23:50.896Z,4.60
2023-09-27T21:26:17.997Z,4.60
2023-09-27T21:28:44.836Z,4.28
2023-09-27T21:31:15.403Z,4.13
2023-09-27T21:33:43.272Z,4.00
2023-09-27T21:36:11.921Z,3.83
2023-09-27T21:38:39.924Z,4.90
2023-09-27T21:41:06.950Z,3.78
2023-09-27T21:43:34.484Z,4.45
2023-09-27T21:46:02.069Z,4.43
2023-09-27T21:48:30.000Z,4.68
2023-09-27T21:50:56.698Z,4.63
2023-09-27T21:53:23.454Z,4.30
2023-09-27T21:55:50.187Z,5.03
2023-09-27T21:58:16.889Z,4.55
2023-09-27T22:00:43.805Z,4.63
2023-09-27T22:03:13.043Z,4.13
2023-09-27T22:05:40.265Z,4.32
2023-09-27T22:08:17.307Z,4.13
2023-09-27T22:10:44.918Z,4.78
2023-09-27T22:13:23.987Z,4.88
2023-09-27T22:15:55.802Z,4.43
2023-09-27T22:18:23.916Z,5.05
2023-09-27T22:20:51.242Z,4.50
2023-09-27T22:23:32.656Z,4.82
2023-09-27T22:26:06.531Z,5.32
2023-09-27T22:28:33.414Z,4.35
2023-09-27T22:31:01.778Z,4.93
2023-09-27T22:33:34.118Z,4.85
2023-09-27T22:36:02.141Z,5.22
2023-09-27T22:38:28.935Z,5.53
2023-09-27T22:40:58.467Z,5.20
2023-09-27T22:43:25.648Z,4.78
2023-09-27T22:45:53.653Z,5.80
2023-09-27T22:48:20.902Z,4.70
2023-09-27T22:50:49.588Z,4.85
2023-09-27T22:53:17.332Z,5.10
2023-09-27T22:55:51.812Z,4.87
2023-09-27T22:58:19.402Z,4.40
2023-09-27T23:00:47.392Z,4.53
2023-09-27T23:03:14.903Z,5.63
2023-09-27T23:05:45.221Z,4.93
2023-09-27T23:08:13.487Z,4.75
2023-09-27T23:13:25.288Z,5.30
2023-09-27T23:15:55.772Z,4.63
2023-09-27T23:18:30.935Z,5.13
2023-09-27T23:20:58.895Z,4.55
2023-09-27T23:23:26.348Z,4.28
2023-09-27T23:25:55.060Z,4.47
2023-09-27T23:28:40.905Z,4.35
2023-09-27T23:31:11.708Z,4.15
2023-09-27T23:33:43.272Z,3.78
2023-09-27T23:36:24.977Z,3.90
2023-09-27T23:38:58.513Z,3.92
2023-09-27T23:41:30.231Z,3.70
2023-09-27T23:44:06.264Z,4.03
2023-09-27T23:46:40.062Z,3.70
2023-09-27T23:49:07.516Z,3.70
2023-09-27T23:51:34.453Z,3.65
2023-09-27T23:54:03.548Z,3.20
2023-09-27T23:56:33.234Z,3.90
2023-09-27T23:59:08.946Z,3.10
